createdAt,value
2018-05-24T00:00:56.885Z,44.32
2018-05-24T00:03:24.655Z,44.40
2018-05-24T00:05:52.900Z,44.42
2018-05-24T00:08:20.905Z,44.45
2018-05-24T00:10:48.869Z,44.57
2018-05-24T00:13:17.145Z,44.69
2018-05-24T00:15:45.441Z,44.69
2018-05-24T00:18:13.287Z,44.84
2018-05-24T00:20:41.560Z,44.82
2018-05-24T00:23:09.632Z,44.73
2018-05-24T00:25:37.457Z,44.63
2018-05-24T00:28:06.091Z,44.75
2018-05-24T00:30:34.515Z,45.07
2018-05-24T00:33:02.326Z,45.13
2018-05-24T00:35:30.656Z,45.26
2018-05-24T00:37:58.485Z,45.16
2018-05-24T00:40:26.343Z,45.00
2018-05-24T00:42:54.614Z,44.76
2018-05-24T00:45:22.586Z,44.85
2018-05-24T00:47:50.354Z,45.88
2018-05-24T00:50:19.135Z,46.32
2018-05-24T00:52:47.131Z,46.57
2018-05-24T00:55:27.327Z,46.82
2018-05-24T00:57:55.276Z,46.95
2018-05-24T01:00:22.982Z,47.08
2018-05-24T01:02:51.492Z,47.35
2018-05-24T01:05:19.647Z,47.58
2018-05-24T01:07:47.609Z,47.67
2018-05-24T01:10:15.895Z,47.59
2018-05-24T01:12:43.713Z,46.80
2018-05-24T01:15:11.615Z,46.28
2018-05-24T01:17:40.372Z,45.99
2018-05-24T01:20:08.556Z,45.95
2018-05-24T01:22:36.440Z,45.98
2018-05-24T01:25:04.730Z,46.08
2018-05-24T01:27:32.712Z,46.15
2018-05-24T01:30:00.675Z,46.11
2018-05-24T01:32:29.311Z,46.13
2018-05-24T01:34:57.422Z,46.20
2018-05-24T01:37:37.481Z,46.30
2018-05-24T01:40:05.547Z,46.52
2018-05-24T01:42:33.372Z,46.78
2018-05-24T01:45:01.811Z,47.07
2018-05-24T01:47:30.074Z,47.32
2018-05-24T01:49:57.931Z,47.40
2018-05-24T01:52:26.525Z,47.55
2018-05-24T01:54:54.596Z,47.69
2018-05-24T01:57:22.560Z,47.76
2018-05-24T01:59:50.761Z,47.82
2018-05-24T02:02:18.800Z,47.89
2018-05-24T02:04:46.770Z,47.95
2018-05-24T02:07:15.278Z,47.97
2018-05-24T02:09:43.625Z,47.88
2018-05-24T02:12:11.595Z,47.93
2018-05-24T02:14:40.309Z,48.08
2018-05-24T02:17:08.396Z,48.30
2018-05-24T02:19:36.226Z,48.79
2018-05-24T02:22:04.457Z,49.14
2018-05-24T02:24:32.770Z,49.63
2018-05-24T02:27:00.638Z,49.86
2018-05-24T02:29:29.331Z,49.87
2018-05-24T02:31:57.461Z,50.31
2018-05-24T02:34:25.397Z,50.02
2018-05-24T02:36:53.950Z,49.75
2018-05-24T02:39:22.093Z,49.64
2018-05-24T02:41:49.826Z,49.79
2018-05-24T02:44:18.486Z,49.91
2018-05-24T02:46:46.480Z,50.00
2018-05-24T02:49:14.409Z,50.10
2018-05-24T02:51:42.685Z,50.17
2018-05-24T02:54:10.783Z,50.09
2018-05-24T02:56:38.625Z,49.98
2018-05-24T02:59:06.901Z,49.88
2018-05-24T03:01:34.892Z,49.93
2018-05-24T03:04:02.811Z,50.11
2018-05-24T03:06:30.977Z,50.31
2018-05-24T03:08:59.182Z,50.23
2018-05-24T03:11:27.074Z,50.21
2018-05-24T03:13:55.564Z,50.33
2018-05-24T03:16:23.620Z,50.53
2018-05-24T03:18:51.469Z,50.57
2018-05-24T03:21:20.167Z,50.67
2018-05-24T03:23:48.327Z,50.71
2018-05-24T03:26:16.708Z,50.77
2018-05-24T03:28:44.878Z,50.61
2018-05-24T03:31:12.962Z,50.58
2018-05-24T03:33:41.205Z,50.79
2018-05-24T03:36:09.343Z,51.21
2018-05-24T03:38:37.159Z,51.33
2018-05-24T03:41:05.401Z,51.15
2018-05-24T03:43:33.710Z,51.04
2018-05-24T03:46:01.646Z,51.00
2018-05-24T03:48:29.696Z,50.90
2018-05-24T03:50:58.133Z,50.97
2018-05-24T03:53:25.981Z,50.91
2018-05-24T03:55:54.068Z,50.77
2018-05-24T03:58:22.966Z,50.67
2018-05-24T04:04:11.738Z,50.58
2018-05-24T04:06:39.915Z,50.58
2018-05-24T04:09:07.789Z,50.48
2018-05-24T04:11:36.433Z,50.32
2018-05-24T04:14:04.760Z,50.27
2018-05-24T04:16:32.607Z,50.31
2018-05-24T04:19:00.876Z,50.32
2018-05-24T04:21:28.951Z,50.14
2018-05-24T04:23:56.815Z,50.12
2018-05-24T04:26:25.561Z,50.05
2018-05-24T04:28:53.514Z,49.93
2018-05-24T04:31:21.748Z,49.96
2018-05-24T04:33:50.640Z,49.75
2018-05-24T04:36:18.484Z,49.65
2018-05-24T04:38:46.327Z,49.55
2018-05-24T04:41:15.348Z,49.44
2018-05-24T04:43:43.204Z,49.40
2018-05-24T04:46:11.001Z,49.33
2018-05-24T04:48:39.682Z,49.28
2018-05-24T04:51:07.648Z,49.27
2018-05-24T04:53:35.476Z,49.19
2018-05-24T04:56:04.608Z,49.14
2018-05-24T04:58:32.678Z,49.02
2018-05-24T05:01:01.039Z,48.87
2018-05-24T05:03:29.793Z,48.80
2018-05-24T05:05:57.852Z,48.64
2018-05-24T05:08:25.784Z,48.31
2018-05-24T05:10:54.166Z,47.91
2018-05-24T05:13:22.170Z,47.59
2018-05-24T05:15:50.101Z,47.43
2018-05-24T05:18:18.801Z,47.17
2018-05-24T05:20:46.652Z,46.94
2018-05-24T05:23:14.581Z,46.75
2018-05-24T05:25:42.838Z,46.57
2018-05-24T05:28:10.862Z,46.38
2018-05-24T05:30:38.928Z,46.22
2018-05-24T05:33:07.575Z,46.11
2018-05-24T05:35:35.536Z,46.08
2018-05-24T05:38:03.457Z,45.94
2018-05-24T05:40:32.152Z,45.80
2018-05-24T05:43:00.420Z,45.51
2018-05-24T05:45:28.255Z,45.24
2018-05-24T05:47:56.612Z,45.07
2018-05-24T05:50:24.816Z,44.90
2018-05-24T05:52:52.647Z,44.77
2018-05-24T05:55:20.782Z,44.66
2018-05-24T05:57:48.824Z,44.55
2018-05-24T06:00:16.690Z,44.38
2018-05-24T06:02:44.883Z,44.05
2018-05-24T06:05:13.105Z,43.88
2018-05-24T06:07:41.049Z,43.70
2018-05-24T06:10:09.407Z,43.69
2018-05-24T06:12:37.528Z,43.64
2018-05-24T06:15:05.606Z,43.57
2018-05-24T06:17:34.200Z,43.45
2018-05-24T06:20:02.274Z,43.63
2018-05-24T06:22:30.065Z,43.32
2018-05-24T06:24:58.397Z,43.13
2018-05-24T06:27:26.418Z,42.96
2018-05-24T06:29:54.294Z,42.84
2018-05-24T06:32:22.620Z,42.70
2018-05-24T06:34:51.042Z,42.32
2018-05-24T06:37:18.995Z,42.18
2018-05-24T06:39:47.268Z,42.08
2018-05-24T06:42:15.458Z,41.92
2018-05-24T06:44:43.529Z,41.77
2018-05-24T06:47:12.026Z,41.85
2018-05-24T06:49:40.541Z,41.86
2018-05-24T06:52:08.361Z,41.75
2018-05-24T06:54:36.625Z,41.42
2018-05-24T06:57:04.923Z,41.31
2018-05-24T06:59:32.828Z,40.82
2018-05-24T07:02:01.316Z,40.66
2018-05-24T07:04:29.439Z,40.76
2018-05-24T07:06:57.296Z,40.72
2018-05-24T07:09:26.809Z,40.89
2018-05-24T07:11:55.068Z,41.00
2018-05-24T07:14:22.945Z,41.24
2018-05-24T07:16:50.942Z,41.22
2018-05-24T07:19:19.388Z,41.36
2018-05-24T07:21:47.260Z,41.00
2018-05-24T07:24:15.646Z,40.61
2018-05-24T07:26:43.918Z,40.53
2018-05-24T07:29:11.786Z,40.18
2018-05-24T07:31:40.161Z,40.12
2018-05-24T07:34:08.953Z,40.01
2018-05-24T07:36:36.761Z,39.71
2018-05-24T07:39:05.218Z,37.37
2018-05-24T07:41:33.880Z,36.17
2018-05-24T07:44:01.746Z,35.21
2018-05-24T07:46:29.818Z,34.38
2018-05-24T07:48:58.149Z,33.39
2018-05-24T07:51:26.092Z,33.03
2018-05-24T07:53:54.138Z,32.05
2018-05-24T07:56:22.456Z,31.36
2018-05-24T07:58:50.612Z,30.81
2018-05-24T08:01:18.858Z,30.22
2018-05-24T08:03:47.341Z,29.72
2018-05-24T08:06:15.171Z,31.36
2018-05-24T08:08:43.300Z,31.92
2018-05-24T08:11:11.921Z,32.40
2018-05-24T08:13:39.728Z,32.19
2018-05-24T08:16:07.824Z,32.17
2018-05-24T08:18:36.380Z,31.99
2018-05-24T08:21:04.245Z,32.07
2018-05-24T08:23:32.648Z,31.57
2018-05-24T08:26:01.313Z,31.31
2018-05-24T08:28:29.176Z,31.19
2018-05-24T08:30:57.191Z,30.87
2018-05-24T08:33:25.522Z,30.70
2018-05-24T08:35:53.367Z,30.22
2018-05-24T08:38:21.565Z,29.71
2018-05-24T08:40:50.007Z,29.44
2018-05-24T08:43:17.912Z,29.30
2018-05-24T08:45:46.223Z,29.15
2018-05-24T08:48:14.668Z,29.07
2018-05-24T08:50:42.639Z,29.31
2018-05-24T08:53:10.920Z,29.42
2018-05-24T08:55:39.657Z,29.06
2018-05-24T08:58:07.464Z,28.64
2018-05-24T09:00:35.686Z,28.70
2018-05-24T09:03:03.898Z,28.40
2018-05-24T09:05:31.778Z,28.68
2018-05-24T09:08:00.177Z,28.94
2018-05-24T09:10:28.814Z,29.34
2018-05-24T09:12:56.729Z,29.38
2018-05-24T09:15:25.087Z,29.51
2018-05-24T09:17:53.745Z,29.69
2018-05-24T09:20:21.797Z,29.91
2018-05-24T09:22:50.124Z,30.12
2018-05-24T09:25:18.609Z,30.21
2018-05-24T09:27:46.634Z,30.14
2018-05-24T09:30:14.848Z,29.88
2018-05-24T09:32:43.123Z,29.98
2018-05-24T09:35:11.398Z,29.96
2018-05-24T09:37:39.572Z,29.99
2018-05-24T09:40:08.263Z,30.28
2018-05-24T09:42:36.228Z,30.39
2018-05-24T09:45:04.608Z,30.13
2018-05-24T09:47:33.114Z,30.00
2018-05-24T09:50:01.057Z,30.07
2018-05-24T09:52:29.228Z,29.60
2018-05-24T09:54:57.720Z,29.48
2018-05-24T09:57:25.477Z,29.26
2018-05-24T09:59:53.458Z,28.83
2018-05-24T10:02:21.891Z,28.58
2018-05-24T10:04:49.998Z,28.48
2018-05-24T10:07:18.097Z,28.32
2018-05-24T10:09:46.601Z,28.39
2018-05-24T10:12:14.411Z,28.01
2018-05-24T10:14:42.427Z,27.96
2018-05-24T10:17:11.084Z,27.84
2018-05-24T10:19:38.937Z,27.69
2018-05-24T10:22:07.112Z,27.60
2018-05-24T10:24:35.492Z,27.38
2018-05-24T10:27:03.362Z,27.41
2018-05-24T10:29:31.789Z,26.97
2018-05-24T10:32:00.157Z,27.03
2018-05-24T10:34:27.933Z,27.08
2018-05-24T10:36:56.112Z,26.97
2018-05-24T10:39:25.145Z,26.54
2018-05-24T10:41:53.023Z,26.84
2018-05-24T10:44:21.178Z,26.83
2018-05-24T10:46:49.662Z,26.66
2018-05-24T10:49:17.530Z,26.95
2018-05-24T10:51:45.808Z,26.64
2018-05-24T10:54:14.258Z,26.85
2018-05-24T10:56:42.300Z,27.02
2018-05-24T10:59:10.249Z,26.88
2018-05-24T11:01:38.498Z,27.11
2018-05-24T11:04:06.367Z,26.85
2018-05-24T11:06:34.582Z,27.36
2018-05-24T11:09:02.896Z,27.25
2018-05-24T11:11:30.904Z,27.16
2018-05-24T11:13:59.249Z,27.21
2018-05-24T11:16:27.540Z,27.36
2018-05-24T11:18:55.406Z,27.55
2018-05-24T11:21:23.613Z,27.55
2018-05-24T11:23:52.318Z,27.31
2018-05-24T11:26:20.170Z,27.25
2018-05-24T11:28:48.382Z,27.33
2018-05-24T11:31:16.685Z,27.17
2018-05-24T11:33:44.542Z,27.05
2018-05-24T11:36:12.546Z,26.92
2018-05-24T11:38:41.006Z,27.00
2018-05-24T11:41:08.832Z,26.73
2018-05-24T11:43:37.255Z,26.92
2018-05-24T11:46:05.489Z,27.01
2018-05-24T11:48:33.393Z,26.97
2018-05-24T11:51:01.563Z,26.97
2018-05-24T11:53:29.903Z,26.94
2018-05-24T11:55:57.805Z,27.15
2018-05-24T11:58:25.913Z,27.46
2018-05-24T12:00:54.163Z,27.80
2018-05-24T12:03:22.124Z,27.91
2018-05-24T12:05:50.262Z,27.84
2018-05-24T12:08:18.476Z,27.72
2018-05-24T12:10:46.343Z,27.29
2018-05-24T12:13:14.574Z,27.54
2018-05-24T12:15:42.965Z,27.84
2018-05-24T12:18:10.856Z,28.14
2018-05-24T12:20:39.078Z,28.04
2018-05-24T12:23:07.718Z,28.34
2018-05-24T12:25:35.555Z,28.67
2018-05-24T12:28:03.927Z,28.84
2018-05-24T12:30:32.243Z,28.91
2018-05-24T12:33:00.105Z,28.98
2018-05-24T12:35:28.321Z,28.86
2018-05-24T12:37:56.454Z,28.86
2018-05-24T12:40:24.411Z,28.75
2018-05-24T12:42:52.595Z,28.74
2018-05-24T12:45:20.985Z,28.42
2018-05-24T12:47:48.833Z,28.37
2018-05-24T12:50:17.230Z,28.06
2018-05-24T12:52:45.486Z,27.28
2018-05-24T12:55:13.417Z,26.43
2018-05-24T12:57:41.598Z,26.15
2018-05-24T13:00:09.690Z,25.57
2018-05-24T13:02:37.781Z,25.49
2018-05-24T13:05:06.223Z,25.50
2018-05-24T13:07:34.222Z,25.40
2018-05-24T13:10:02.205Z,25.15
2018-05-24T13:12:30.402Z,24.97
2018-05-24T13:14:58.649Z,24.58
2018-05-24T13:17:26.657Z,24.87
2018-05-24T13:19:54.679Z,24.83
2018-05-24T13:22:22.855Z,25.21
2018-05-24T13:24:50.729Z,25.01
2018-05-24T13:27:18.978Z,24.74
2018-05-24T13:29:47.073Z,25.04
2018-05-24T13:32:14.908Z,24.90
2018-05-24T13:34:44.069Z,24.96
2018-05-24T13:37:12.203Z,24.92
2018-05-24T13:39:40.273Z,25.13
2018-05-24T13:42:08.925Z,25.32
2018-05-24T13:44:37.133Z,25.44
2018-05-24T13:47:05.206Z,25.51
2018-05-24T13:49:33.608Z,25.39
2018-05-24T13:52:01.716Z,25.18
2018-05-24T13:54:29.521Z,25.21
2018-05-24T13:56:57.823Z,24.89
2018-05-24T13:59:25.880Z,24.47
2018-05-24T14:01:53.803Z,24.22
2018-05-24T14:04:21.860Z,24.36
2018-05-24T14:06:49.980Z,24.44
2018-05-24T14:09:17.884Z,24.29
2018-05-24T14:11:46.224Z,24.53
2018-05-24T14:14:14.396Z,24.34
2018-05-24T14:16:42.382Z,24.82
2018-05-24T14:19:10.882Z,25.15
2018-05-24T14:21:39.158Z,25.44
2018-05-24T14:24:06.917Z,25.41
2018-05-24T14:26:35.176Z,25.51
2018-05-24T14:29:03.249Z,25.49
2018-05-24T14:31:31.098Z,25.79
2018-05-24T14:33:59.406Z,25.89
2018-05-24T14:36:27.756Z,26.03
2018-05-24T14:38:55.646Z,24.67
2018-05-24T14:41:24.127Z,24.00
2018-05-24T14:43:52.447Z,24.30
2018-05-24T14:46:20.430Z,24.59
2018-05-24T14:48:49.048Z,24.19
2018-05-24T14:51:17.410Z,24.14
2018-05-24T14:53:45.332Z,24.34
2018-05-24T14:56:13.658Z,24.87
2018-05-24T14:58:41.904Z,24.84
2018-05-24T15:01:10.008Z,24.75
2018-05-24T15:03:38.429Z,24.51
2018-05-24T15:06:06.555Z,24.53
2018-05-24T15:08:34.539Z,24.15
2018-05-24T15:11:02.893Z,24.23
2018-05-24T15:13:42.906Z,24.07
2018-05-24T15:16:11.167Z,23.90
2018-05-24T15:18:39.025Z,23.48
2018-05-24T15:21:07.100Z,23.25
2018-05-24T15:23:35.428Z,23.33
2018-05-24T15:26:03.271Z,22.79
2018-05-24T15:28:31.723Z,22.71
2018-05-24T15:31:00.167Z,22.59
2018-05-24T15:33:28.182Z,22.74
2018-05-24T15:35:56.592Z,23.09
2018-05-24T15:38:25.053Z,23.28
2018-05-24T15:40:52.864Z,23.28
2018-05-24T15:43:21.259Z,23.32
2018-05-24T15:45:49.644Z,23.45
2018-05-24T15:48:17.592Z,23.34
2018-05-24T15:50:45.868Z,23.21
2018-05-24T15:53:14.282Z,23.27
2018-05-24T15:55:42.070Z,23.36
2018-05-24T15:58:10.290Z,23.33
2018-05-24T16:00:38.385Z,23.31
2018-05-24T16:03:06.425Z,23.29
2018-05-24T16:05:34.599Z,23.24
2018-05-24T16:08:02.981Z,23.31
2018-05-24T16:10:30.780Z,23.54
2018-05-24T16:12:59.118Z,23.62
2018-05-24T16:15:27.346Z,24.02
2018-05-24T16:17:55.262Z,24.20
2018-05-24T16:20:23.773Z,24.28
2018-05-24T16:22:52.506Z,24.28
2018-05-24T16:25:20.613Z,23.98
2018-05-24T16:27:48.901Z,24.21
2018-05-24T16:30:17.478Z,24.39
2018-05-24T16:32:45.280Z,24.63
2018-05-24T16:35:13.404Z,25.12
2018-05-24T16:37:41.860Z,25.46
2018-05-24T16:40:09.968Z,25.62
2018-05-24T16:42:38.031Z,25.84
2018-05-24T16:45:06.481Z,26.02
2018-05-24T16:47:34.518Z,26.11
2018-05-24T16:50:02.811Z,26.25
2018-05-24T16:52:31.520Z,26.37
2018-05-24T16:54:59.509Z,26.24
2018-05-24T16:57:27.703Z,26.11
2018-05-24T16:59:56.263Z,26.29
2018-05-24T17:02:24.137Z,26.44
2018-05-24T17:04:52.269Z,26.65
2018-05-24T17:07:20.417Z,27.00
2018-05-24T17:09:48.342Z,27.49
2018-05-24T17:12:16.625Z,27.55
2018-05-24T17:14:45.108Z,27.80
2018-05-24T17:17:12.925Z,27.92
2018-05-24T17:19:41.103Z,27.99
2018-05-24T17:22:09.500Z,27.96
2018-05-24T17:24:37.356Z,27.59
2018-05-24T17:27:05.492Z,27.07
2018-05-24T17:29:33.754Z,26.92
2018-05-24T17:32:01.548Z,26.76
2018-05-24T17:34:29.770Z,26.70
2018-05-24T17:36:58.192Z,26.72
2018-05-24T17:39:25.968Z,26.75
2018-05-24T17:41:54.393Z,26.80
2018-05-24T17:44:22.775Z,26.85
2018-05-24T17:46:50.533Z,26.86
2018-05-24T17:49:18.606Z,26.96
2018-05-24T17:51:46.910Z,26.97
2018-05-24T17:54:14.726Z,27.05
2018-05-24T17:56:42.762Z,27.15
2018-05-24T17:59:11.247Z,27.22
2018-05-24T18:01:39.166Z,27.29
2018-05-24T18:04:07.355Z,27.31
2018-05-24T18:06:35.917Z,27.40
2018-05-24T18:09:03.961Z,27.73
2018-05-24T18:11:32.093Z,27.83
2018-05-24T18:14:00.395Z,28.01
2018-05-24T18:16:28.350Z,28.22
2018-05-24T18:18:56.485Z,28.47
2018-05-24T18:21:24.695Z,28.60
2018-05-24T18:23:52.649Z,28.91
2018-05-24T18:26:20.902Z,29.19
2018-05-24T18:28:49.932Z,29.44
2018-05-24T18:31:17.766Z,29.60
2018-05-24T18:33:46.119Z,29.78
2018-05-24T18:36:14.521Z,30.00
2018-05-24T18:38:42.431Z,30.18
2018-05-24T18:41:10.640Z,30.35
2018-05-24T18:43:39.177Z,30.39
2018-05-24T18:46:07.342Z,30.56
2018-05-24T18:48:35.636Z,30.66
2018-05-24T18:51:04.239Z,30.85
2018-05-24T18:53:32.356Z,31.00
2018-05-24T18:56:00.525Z,31.05
2018-05-24T18:58:28.584Z,31.17
2018-05-24T19:00:57.123Z,31.32
2018-05-24T19:03:25.360Z,31.35
2018-05-24T19:05:53.656Z,31.41
2018-05-24T19:08:21.910Z,31.48
2018-05-24T19:10:50.180Z,31.53
2018-05-24T19:13:18.469Z,31.58
2018-05-24T19:15:47.143Z,31.62
2018-05-24T19:18:15.219Z,31.78
2018-05-24T19:20:43.482Z,31.92
2018-05-24T19:23:11.765Z,32.00
2018-05-24T19:25:39.945Z,32.02
2018-05-24T19:28:08.282Z,32.04
2018-05-24T19:30:36.597Z,32.16
2018-05-24T19:33:04.664Z,32.22
2018-05-24T19:35:32.838Z,32.30
2018-05-24T19:38:01.129Z,32.40
2018-05-24T19:40:29.389Z,32.50
2018-05-24T19:42:57.457Z,32.52
2018-05-24T19:45:25.620Z,32.63
2018-05-24T19:47:53.913Z,32.80
2018-05-24T19:50:22.134Z,32.91
2018-05-24T19:52:50.254Z,33.02
2018-05-24T19:55:18.530Z,33.06
2018-05-24T19:57:46.602Z,33.15
2018-05-24T20:00:14.752Z,33.28
2018-05-24T20:02:43.052Z,33.35
2018-05-24T20:05:11.482Z,33.39
2018-05-24T20:07:39.818Z,33.41
2018-05-24T20:10:07.980Z,33.50
2018-05-24T20:12:36.363Z,33.57
2018-05-24T20:15:04.613Z,33.67
2018-05-24T20:17:33.124Z,33.83
2018-05-24T20:20:01.548Z,33.92
2018-05-24T20:22:29.553Z,34.01
2018-05-24T20:24:57.878Z,34.07
2018-05-24T20:27:26.372Z,34.15
2018-05-24T20:29:54.276Z,34.25
2018-05-24T20:32:22.395Z,34.38
2018-05-24T20:34:50.479Z,34.47
2018-05-24T20:37:18.403Z,34.50
2018-05-24T20:39:46.885Z,34.63
2018-05-24T20:42:15.190Z,34.75
2018-05-24T20:44:43.315Z,34.89
2018-05-24T20:47:12.229Z,35.01
2018-05-24T20:49:40.647Z,35.11
2018-05-24T20:52:08.686Z,35.13
2018-05-24T20:54:36.812Z,35.24
2018-05-24T20:57:05.149Z,35.38
2018-05-24T20:59:33.116Z,35.51
2018-05-24T21:02:01.572Z,35.63
2018-05-24T21:04:30.490Z,35.66
2018-05-24T21:06:58.434Z,35.60
2018-05-24T21:09:26.783Z,35.86
2018-05-24T21:11:54.964Z,36.20
2018-05-24T21:14:22.958Z,36.54
2018-05-24T21:16:51.150Z,36.80
2018-05-24T21:19:19.705Z,37.02
2018-05-24T21:21:48.769Z,37.09
2018-05-24T21:24:17.167Z,37.09
2018-05-24T21:26:45.564Z,37.16
2018-05-24T21:29:13.838Z,37.76
2018-05-24T21:31:42.219Z,38.35
2018-05-24T21:34:10.492Z,38.76
2018-05-24T21:36:38.908Z,39.06
2018-05-24T21:39:07.157Z,39.33
2018-05-24T21:41:35.729Z,39.51
2018-05-24T21:44:03.714Z,39.57
2018-05-24T21:46:31.907Z,39.69
2018-05-24T21:49:00.148Z,39.77
2018-05-24T21:51:28.015Z,39.79
2018-05-24T21:53:56.340Z,39.79
2018-05-24T21:56:24.481Z,39.82
2018-05-24T21:58:52.533Z,39.60
2018-05-24T22:01:21.058Z,39.63
2018-05-24T22:03:49.287Z,40.09
2018-05-24T22:06:17.163Z,40.29
2018-05-24T22:08:45.573Z,40.27
2018-05-24T22:11:13.739Z,40.20
2018-05-24T22:13:41.811Z,40.11
2018-05-24T22:16:10.162Z,40.31
2018-05-24T22:18:38.541Z,40.90
2018-05-24T22:21:06.578Z,40.95
2018-05-24T22:23:34.922Z,40.79
2018-05-24T22:26:03.711Z,40.78
2018-05-24T22:28:31.645Z,41.05
2018-05-24T22:30:59.834Z,41.15
2018-05-24T22:33:28.117Z,41.40
2018-05-24T22:35:56.001Z,41.47
2018-05-24T22:38:24.277Z,41.55
2018-05-24T22:40:53.037Z,41.70
2018-05-24T22:43:20.838Z,41.75
2018-05-24T22:45:48.888Z,41.67
2018-05-24T22:48:17.490Z,41.62
2018-05-24T22:50:45.554Z,41.80
2018-05-24T22:53:14.126Z,41.87
2018-05-24T22:55:42.375Z,41.88
2018-05-24T22:58:10.216Z,42.10
2018-05-24T23:00:38.481Z,42.10
2018-05-24T23:03:06.983Z,42.29
2018-05-24T23:05:34.862Z,42.41
2018-05-24T23:08:03.037Z,42.70
2018-05-24T23:10:31.501Z,42.66
2018-05-24T23:12:59.513Z,42.92
2018-05-24T23:15:27.867Z,43.06
2018-05-24T23:17:56.051Z,43.04
2018-05-24T23:20:24.144Z,43.25
2018-05-24T23:22:52.484Z,43.54
2018-05-24T23:25:20.767Z,43.49
2018-05-24T23:27:48.731Z,43.75
2018-05-24T23:30:16.885Z,43.71
2018-05-24T23:32:45.283Z,43.79
2018-05-24T23:35:13.098Z,43.90
2018-05-24T23:37:41.441Z,43.72
2018-05-24T23:40:09.756Z,43.65
2018-05-24T23:42:37.742Z,43.84
2018-05-24T23:45:05.948Z,43.63
2018-05-24T23:47:34.483Z,43.61
2018-05-24T23:50:02.395Z,43.62
2018-05-24T23:52:31.057Z,43.63
2018-05-24T23:54:59.661Z,43.73
2018-05-24T23:57:27.630Z,43.88
2018-05-24T23:59:55.905Z,44.06
